sensor_id;sensor_type;location;lat;lon;timestamp;temperature;humidity
11047;DHT22;5576;50.008;10.596;2023-06-22T00:01:10;20.00;99.90
11047;DHT22;5576;50.008;10.596;2023-06-22T00:03:36;19.90;99.90
11047;DHT22;5576;50.008;10.596;2023-06-22T00:06:01;19.90;99.90
11047;DHT22;5576;50.008;10.596;2023-06-22T00:08:27;19.90;99.90
11047;DHT22;5576;50.008;10.596;2023-06-22T00:10:53;19.90;99.90
11047;DHT22;5576;50.008;10.596;2023-06-22T00:13:18;19.80;99.90
11047;DHT22;5576;50.008;10.596;2023-06-22T00:15:44;19.70;99.90
11047;DHT22;5576;50.008;10.596;2023-06-22T00:18:10;19.80;99.90
11047;DHT22;5576;50.008;10.596;2023-06-22T00:20:37;19.80;99.90
11047;DHT22;5576;50.008;10.596;2023-06-22T00:23:04;22.30;99.90
11047;DHT22;5576;50.008;10.596;2023-06-22T00:25:35;19.90;99.90
11047;DHT22;5576;50.008;10.596;2023-06-22T00:28:01;19.80;99.90
11047;DHT22;5576;50.008;10.596;2023-06-22T00:30:27;17.90;99.90
11047;DHT22;5576;50.008;10.596;2023-06-22T00:32:56;19.80;99.90
11047;DHT22;5576;50.008;10.596;2023-06-22T00:35:22;19.80;99.90
11047;DHT22;5576;50.008;10.596;2023-06-22T00:37:48;19.60;99.90
11047;DHT22;5576;50.008;10.596;2023-06-22T00:40:13;19.40;99.90
11047;DHT22;5576;50.008;10.596;2023-06-22T00:42:40;19.30;99.90
11047;DHT22;5576;50.008;10.596;2023-06-22T00:45:07;19.30;99.90
11047;DHT22;5576;50.008;10.596;2023-06-22T00:47:34;16.30;99.90
11047;DHT22;5576;50.008;10.596;2023-06-22T00:50:05;19.30;99.90
11047;DHT22;5576;50.008;10.596;2023-06-22T00:52:32;19.40;99.90
11047;DHT22;5576;50.008;10.596;2023-06-22T00:55:02;19.40;99.90
11047;DHT22;5576;50.008;10.596;2023-06-22T00:57:28;19.30;99.90
11047;DHT22;5576;50.008;10.596;2023-06-22T00:59:55;19.40;99.90
11047;DHT22;5576;50.008;10.596;2023-06-22T01:02:20;19.50;99.90
11047;DHT22;5576;50.008;10.596;2023-06-22T01:04:46;19.50;99.90
11047;DHT22;5576;50.008;10.596;2023-06-22T01:12:45;19.40;99.90
11047;DHT22;5576;50.008;10.596;2023-06-22T01:15:16;19.30;99.90
11047;DHT22;5576;50.008;10.596;2023-06-22T01:17:46;19.30;99.90
11047;DHT22;5576;50.008;10.596;2023-06-22T01:20:14;19.30;99.90
11047;DHT22;5576;50.008;10.596;2023-06-22T01:22:55;19.30;99.90
11047;DHT22;5576;50.008;10.596;2023-06-22T01:25:33;19.30;99.90
11047;DHT22;5576;50.008;10.596;2023-06-22T01:30:49;20.00;99.90
11047;DHT22;5576;50.008;10.596;2023-06-22T01:33:16;19.40;99.90
11047;DHT22;5576;50.008;10.596;2023-06-22T01:35:44;19.40;99.90
11047;DHT22;5576;50.008;10.596;2023-06-22T01:38:10;19.50;99.90
11047;DHT22;5576;50.008;10.596;2023-06-22T01:40:36;19.60;99.90
11047;DHT22;5576;50.008;10.596;2023-06-22T01:43:02;15.80;99.90
11047;DHT22;5576;50.008;10.596;2023-06-22T01:45:29;19.70;99.90
11047;DHT22;5576;50.008;10.596;2023-06-22T01:47:56;19.60;99.90
11047;DHT22;5576;50.008;10.596;2023-06-22T01:50:22;19.60;99.90
11047;DHT22;5576;50.008;10.596;2023-06-22T01:52:48;19.50;99.90
11047;DHT22;5576;50.008;10.596;2023-06-22T01:55:14;19.40;99.90
11047;DHT22;5576;50.008;10.596;2023-06-22T01:57:40;19.40;99.90
11047;DHT22;5576;50.008;10.596;2023-06-22T02:00:19;22.00;99.90
11047;DHT22;5576;50.008;10.596;2023-06-22T02:02:56;19.30;99.90
11047;DHT22;5576;50.008;10.596;2023-06-22T02:05:24;15.20;99.90
11047;DHT22;5576;50.008;10.596;2023-06-22T02:07:58;16.60;99.90
11047;DHT22;5576;50.008;10.596;2023-06-22T02:10:26;22.00;99.90
11047;DHT22;5576;50.008;10.596;2023-06-22T02:12:57;19.40;99.90
11047;DHT22;5576;50.008;10.596;2023-06-22T02:15:25;19.20;99.90
11047;DHT22;5576;50.008;10.596;2023-06-22T02:17:54;19.20;99.90
11047;DHT22;5576;50.008;10.596;2023-06-22T02:20:21;19.10;99.90
11047;DHT22;5576;50.008;10.596;2023-06-22T02:22:47;19.30;99.90
11047;DHT22;5576;50.008;10.596;2023-06-22T02:25:12;19.50;99.90
11047;DHT22;5576;50.008;10.596;2023-06-22T02:27:38;19.50;99.90
11047;DHT22;5576;50.008;10.596;2023-06-22T02:30:07;19.50;99.90
11047;DHT22;5576;50.008;10.596;2023-06-22T02:32:34;19.60;99.90
11047;DHT22;5576;50.008;10.596;2023-06-22T02:35:00;19.70;99.90
11047;DHT22;5576;50.008;10.596;2023-06-22T02:37:30;19.70;99.90
11047;DHT22;5576;50.008;10.596;2023-06-22T02:39:56;19.60;99.90
11047;DHT22;5576;50.008;10.596;2023-06-22T02:42:21;19.60;99.90
11047;DHT22;5576;50.008;10.596;2023-06-22T02:44:48;19.60;99.90
11047;DHT22;5576;50.008;10.596;2023-06-22T02:47:13;19.50;99.90
11047;DHT22;5576;50.008;10.596;2023-06-22T02:49:39;17.90;99.90
11047;DHT22;5576;50.008;10.596;2023-06-22T02:52:06;19.70;99.90
11047;DHT22;5576;50.008;10.596;2023-06-22T02:54:32;19.80;99.90
11047;DHT22;5576;50.008;10.596;2023-06-22T02:56:59;19.80;99.90
11047;DHT22;5576;50.008;10.596;2023-06-22T02:59:29;16.00;99.90
11047;DHT22;5576;50.008;10.596;2023-06-22T03:02:01;19.50;99.90
11047;DHT22;5576;50.008;10.596;2023-06-22T03:04:30;19.60;99.90
11047;DHT22;5576;50.008;10.596;2023-06-22T03:06:57;19.60;99.90
11047;DHT22;5576;50.008;10.596;2023-06-22T03:09:28;18.70;99.90
11047;DHT22;5576;50.008;10.596;2023-06-22T03:11:55;19.70;99.90
11047;DHT22;5576;50.008;10.596;2023-06-22T03:14:24;17.60;99.90
11047;DHT22;5576;50.008;10.596;2023-06-22T03:16:51;19.70;99.90
11047;DHT22;5576;50.008;10.596;2023-06-22T03:19:18;19.80;99.90
11047;DHT22;5576;50.008;10.596;2023-06-22T03:21:45;19.80;99.90
11047;DHT22;5576;50.008;10.596;2023-06-22T03:24:10;20.50;99.90
11047;DHT22;5576;50.008;10.596;2023-06-22T03:26:37;19.50;99.90
11047;DHT22;5576;50.008;10.596;2023-06-22T03:29:03;20.80;99.90
11047;DHT22;5576;50.008;10.596;2023-06-22T03:31:30;19.60;99.90
11047;DHT22;5576;50.008;10.596;2023-06-22T03:33:56;19.70;99.90
11047;DHT22;5576;50.008;10.596;2023-06-22T03:36:23;22.10;99.90
11047;DHT22;5576;50.008;10.596;2023-06-22T03:38:49;19.80;99.90
11047;DHT22;5576;50.008;10.596;2023-06-22T03:41:16;19.80;99.90
11047;DHT22;5576;50.008;10.596;2023-06-22T03:43:42;19.80;99.90
11047;DHT22;5576;50.008;10.596;2023-06-22T03:46:08;19.80;99.90
11047;DHT22;5576;50.008;10.596;2023-06-22T03:48:34;19.00;99.90
11047;DHT22;5576;50.008;10.596;2023-06-22T03:51:00;19.80;99.90
11047;DHT22;5576;50.008;10.596;2023-06-22T03:53:26;19.80;99.90
11047;DHT22;5576;50.008;10.596;2023-06-22T03:55:52;19.80;99.90
11047;DHT22;5576;50.008;10.596;2023-06-22T03:58:19;19.70;99.90
11047;DHT22;5576;50.008;10.596;2023-06-22T04:00:49;18.70;99.90
11047;DHT22;5576;50.008;10.596;2023-06-22T04:03:15;19.70;99.90
11047;DHT22;5576;50.008;10.596;2023-06-22T04:05:44;19.70;99.90
11047;DHT22;5576;50.008;10.596;2023-06-22T04:08:11;23.20;99.90
11047;DHT22;5576;50.008;10.596;2023-06-22T04:10:37;19.90;99.90
11047;DHT22;5576;50.008;10.596;2023-06-22T04:13:03;19.90;99.90
11047;DHT22;5576;50.008;10.596;2023-06-22T04:15:29;21.80;99.90
11047;DHT22;5576;50.008;10.596;2023-06-22T04:17:55;20.00;99.90
11047;DHT22;5576;50.008;10.596;2023-06-22T04:20:21;16.90;99.90
11047;DHT22;5576;50.008;10.596;2023-06-22T04:22:47;20.20;99.90
11047;DHT22;5576;50.008;10.596;2023-06-22T04:25:13;20.40;99.90
11047;DHT22;5576;50.008;10.596;2023-06-22T04:27:39;20.40;99.90
11047;DHT22;5576;50.008;10.596;2023-06-22T04:30:07;20.40;99.90
11047;DHT22;5576;50.008;10.596;2023-06-22T04:32:34;20.40;99.90
11047;DHT22;5576;50.008;10.596;2023-06-22T04:35:02;20.30;99.90
11047;DHT22;5576;50.008;10.596;2023-06-22T04:37:30;20.30;99.90
11047;DHT22;5576;50.008;10.596;2023-06-22T04:39:56;20.40;99.90
11047;DHT22;5576;50.008;10.596;2023-06-22T04:42:22;18.70;99.90
11047;DHT22;5576;50.008;10.596;2023-06-22T04:44:48;20.40;99.90
11047;DHT22;5576;50.008;10.596;2023-06-22T04:47:13;20.30;99.90
11047;DHT22;5576;50.008;10.596;2023-06-22T04:49:39;20.40;99.90
11047;DHT22;5576;50.008;10.596;2023-06-22T04:52:10;20.40;99.90
11047;DHT22;5576;50.008;10.596;2023-06-22T04:54:37;20.40;99.90
11047;DHT22;5576;50.008;10.596;2023-06-22T04:57:06;20.30;99.90
11047;DHT22;5576;50.008;10.596;2023-06-22T04:59:36;20.40;99.90
11047;DHT22;5576;50.008;10.596;2023-06-22T05:02:04;20.40;99.90
11047;DHT22;5576;50.008;10.596;2023-06-22T05:04:37;20.40;99.90
11047;DHT22;5576;50.008;10.596;2023-06-22T05:07:04;20.40;99.90
11047;DHT22;5576;50.008;10.596;2023-06-22T05:09:30;20.40;99.90
11047;DHT22;5576;50.008;10.596;2023-06-22T05:11:56;20.40;99.90
11047;DHT22;5576;50.008;10.596;2023-06-22T05:14:23;20.40;99.90
11047;DHT22;5576;50.008;10.596;2023-06-22T05:16:49;20.40;99.90
11047;DHT22;5576;50.008;10.596;2023-06-22T05:19:15;20.40;99.90
11047;DHT22;5576;50.008;10.596;2023-06-22T05:21:40;20.30;99.90
11047;DHT22;5576;50.008;10.596;2023-06-22T05:24:06;20.30;99.90
11047;DHT22;5576;50.008;10.596;2023-06-22T05:26:34;20.40;99.90
11047;DHT22;5576;50.008;10.596;2023-06-22T05:29:01;20.50;99.90
11047;DHT22;5576;50.008;10.596;2023-06-22T05:31:28;17.20;99.90
11047;DHT22;5576;50.008;10.596;2023-06-22T05:33:54;20.60;99.90
11047;DHT22;5576;50.008;10.596;2023-06-22T05:36:20;20.60;99.90
11047;DHT22;5576;50.008;10.596;2023-06-22T05:38:47;20.60;99.90
11047;DHT22;5576;50.008;10.596;2023-06-22T05:41:13;20.60;99.90
11047;DHT22;5576;50.008;10.596;2023-06-22T05:43:39;20.70;99.90
11047;DHT22;5576;50.008;10.596;2023-06-22T05:46:05;20.70;99.90
11047;DHT22;5576;50.008;10.596;2023-06-22T05:48:31;20.70;99.90
11047;DHT22;5576;50.008;10.596;2023-06-22T05:50:57;20.80;99.90
11047;DHT22;5576;50.008;10.596;2023-06-22T05:53:23;20.80;99.90
11047;DHT22;5576;50.008;10.596;2023-06-22T05:55:49;20.80;99.90
11047;DHT22;5576;50.008;10.596;2023-06-22T05:58:15;20.80;99.90
11047;DHT22;5576;50.008;10.596;2023-06-22T06:00:41;20.90;99.90
11047;DHT22;5576;50.008;10.596;2023-06-22T06:05:34;19.20;99.90
11047;DHT22;5576;50.008;10.596;2023-06-22T06:08:01;21.10;99.90
11047;DHT22;5576;50.008;10.596;2023-06-22T06:10:27;21.20;99.90
11047;DHT22;5576;50.008;10.596;2023-06-22T06:12:55;21.30;99.90
11047;DHT22;5576;50.008;10.596;2023-06-22T06:15:21;24.80;99.90
11047;DHT22;5576;50.008;10.596;2023-06-22T06:17:49;21.40;99.90
11047;DHT22;5576;50.008;10.596;2023-06-22T06:20:18;21.50;99.90
11047;DHT22;5576;50.008;10.596;2023-06-22T06:22:44;21.50;99.90
11047;DHT22;5576;50.008;10.596;2023-06-22T06:25:10;21.50;99.90
11047;DHT22;5576;50.008;10.596;2023-06-22T06:27:43;21.50;99.90
11047;DHT22;5576;50.008;10.596;2023-06-22T06:30:11;21.50;99.90
11047;DHT22;5576;50.008;10.596;2023-06-22T06:32:37;21.60;99.90
11047;DHT22;5576;50.008;10.596;2023-06-22T06:35:05;21.70;99.90
11047;DHT22;5576;50.008;10.596;2023-06-22T06:37:31;21.80;99.90
11047;DHT22;5576;50.008;10.596;2023-06-22T06:39:57;21.80;99.90
11047;DHT22;5576;50.008;10.596;2023-06-22T06:42:23;21.90;99.90
11047;DHT22;5576;50.008;10.596;2023-06-22T06:44:50;21.90;99.90
11047;DHT22;5576;50.008;10.596;2023-06-22T06:47:15;22.00;99.90
11047;DHT22;5576;50.008;10.596;2023-06-22T06:49:42;22.00;99.90
11047;DHT22;5576;50.008;10.596;2023-06-22T06:52:08;22.10;99.90
11047;DHT22;5576;50.008;10.596;2023-06-22T06:54:34;22.20;99.90
11047;DHT22;5576;50.008;10.596;2023-06-22T06:56:59;22.20;99.90
11047;DHT22;5576;50.008;10.596;2023-06-22T06:59:25;22.50;99.90
11047;DHT22;5576;50.008;10.596;2023-06-22T07:01:51;22.50;99.90
11047;DHT22;5576;50.008;10.596;2023-06-22T07:04:16;25.10;99.90
11047;DHT22;5576;50.008;10.596;2023-06-22T07:06:42;22.70;99.90
11047;DHT22;5576;50.008;10.596;2023-06-22T07:09:08;22.90;99.90
11047;DHT22;5576;50.008;10.596;2023-06-22T07:11:34;22.90;99.90
11047;DHT22;5576;50.008;10.596;2023-06-22T07:14:01;23.00;99.90
11047;DHT22;5576;50.008;10.596;2023-06-22T07:16:26;23.00;99.90
11047;DHT22;5576;50.008;10.596;2023-06-22T07:18:53;21.20;99.90
11047;DHT22;5576;50.008;10.596;2023-06-22T07:21:19;23.30;99.90
11047;DHT22;5576;50.008;10.596;2023-06-22T07:23:45;23.40;99.90
11047;DHT22;5576;50.008;10.596;2023-06-22T07:26:10;23.40;99.90
11047;DHT22;5576;50.008;10.596;2023-06-22T07:28:38;25.20;99.90
11047;DHT22;5576;50.008;10.596;2023-06-22T07:31:06;23.60;99.90
11047;DHT22;5576;50.008;10.596;2023-06-22T07:33:32;23.60;99.90
11047;DHT22;5576;50.008;10.596;2023-06-22T07:35:57;23.60;99.90
11047;DHT22;5576;50.008;10.596;2023-06-22T07:38:23;23.70;99.90
11047;DHT22;5576;50.008;10.596;2023-06-22T07:40:49;23.80;99.90
11047;DHT22;5576;50.008;10.596;2023-06-22T07:43:16;24.10;99.90
11047;DHT22;5576;50.008;10.596;2023-06-22T07:45:48;21.90;99.90
11047;DHT22;5576;50.008;10.596;2023-06-22T07:48:19;22.40;99.90
11047;DHT22;5576;50.008;10.596;2023-06-22T07:50:45;24.30;99.90
11047;DHT22;5576;50.008;10.596;2023-06-22T07:53:11;23.30;99.90
11047;DHT22;5576;50.008;10.596;2023-06-22T07:55:36;24.60;99.90
11047;DHT22;5576;50.008;10.596;2023-06-22T07:58:02;24.70;99.90
11047;DHT22;5576;50.008;10.596;2023-06-22T08:00:28;22.00;99.90
11047;DHT22;5576;50.008;10.596;2023-06-22T08:02:54;24.80;99.90
11047;DHT22;5576;50.008;10.596;2023-06-22T08:05:20;24.90;99.90
11047;DHT22;5576;50.008;10.596;2023-06-22T08:07:45;25.00;99.90
11047;DHT22;5576;50.008;10.596;2023-06-22T08:10:12;23.10;99.90
11047;DHT22;5576;50.008;10.596;2023-06-22T08:12:39;25.20;99.90
11047;DHT22;5576;50.008;10.596;2023-06-22T08:15:05;25.40;99.90
11047;DHT22;5576;50.008;10.596;2023-06-22T08:17:31;26.90;99.90
11047;DHT22;5576;50.008;10.596;2023-06-22T08:19:57;25.50;99.90
11047;DHT22;5576;50.008;10.596;2023-06-22T08:22:23;25.50;99.90
11047;DHT22;5576;50.008;10.596;2023-06-22T08:24:48;25.70;99.90
11047;DHT22;5576;50.008;10.596;2023-06-22T08:27:14;25.80;99.90
11047;DHT22;5576;50.008;10.596;2023-06-22T08:29:42;25.80;99.90
11047;DHT22;5576;50.008;10.596;2023-06-22T08:32:09;28.80;99.90
11047;DHT22;5576;50.008;10.596;2023-06-22T08:34:36;25.80;99.90
11047;DHT22;5576;50.008;10.596;2023-06-22T08:37:02;25.90;99.90
11047;DHT22;5576;50.008;10.596;2023-06-22T08:39:32;26.10;99.90
11047;DHT22;5576;50.008;10.596;2023-06-22T08:41:58;26.10;99.90
11047;DHT22;5576;50.008;10.596;2023-06-22T08:44:24;26.30;99.90
11047;DHT22;5576;50.008;10.596;2023-06-22T08:46:49;26.30;99.90
11047;DHT22;5576;50.008;10.596;2023-06-22T08:49:15;26.50;99.90
11047;DHT22;5576;50.008;10.596;2023-06-22T08:51:41;26.60;99.90
11047;DHT22;5576;50.008;10.596;2023-06-22T08:54:07;25.90;99.90
11047;DHT22;5576;50.008;10.596;2023-06-22T08:56:32;26.90;99.90
11047;DHT22;5576;50.008;10.596;2023-06-22T08:58:58;26.80;99.90
11047;DHT22;5576;50.008;10.596;2023-06-22T09:01:24;26.90;99.90
11047;DHT22;5576;50.008;10.596;2023-06-22T09:03:50;27.10;99.90
11047;DHT22;5576;50.008;10.596;2023-06-22T09:06:20;24.00;99.90
11047;DHT22;5576;50.008;10.596;2023-06-22T09:08:48;27.20;99.90
11047;DHT22;5576;50.008;10.596;2023-06-22T09:11:14;27.40;99.90
11047;DHT22;5576;50.008;10.596;2023-06-22T09:13:40;27.60;99.90
11047;DHT22;5576;50.008;10.596;2023-06-22T09:16:06;28.70;99.90
11047;DHT22;5576;50.008;10.596;2023-06-22T09:18:33;27.60;99.90
11047;DHT22;5576;50.008;10.596;2023-06-22T09:20:59;27.60;99.90
11047;DHT22;5576;50.008;10.596;2023-06-22T09:23:25;27.80;99.90
11047;DHT22;5576;50.008;10.596;2023-06-22T09:25:51;27.90;99.90
11047;DHT22;5576;50.008;10.596;2023-06-22T09:28:16;27.80;99.90
11047;DHT22;5576;50.008;10.596;2023-06-22T09:30:43;28.10;99.90
11047;DHT22;5576;50.008;10.596;2023-06-22T09:33:10;28.20;99.90
11047;DHT22;5576;50.008;10.596;2023-06-22T09:35:35;28.20;99.90
11047;DHT22;5576;50.008;10.596;2023-06-22T09:38:01;28.30;99.90
11047;DHT22;5576;50.008;10.596;2023-06-22T09:40:27;28.30;99.90
11047;DHT22;5576;50.008;10.596;2023-06-22T09:42:52;29.40;99.90
11047;DHT22;5576;50.008;10.596;2023-06-22T09:45:18;28.60;99.90
11047;DHT22;5576;50.008;10.596;2023-06-22T09:47:44;28.70;99.90
11047;DHT22;5576;50.008;10.596;2023-06-22T09:50:10;28.80;99.90
11047;DHT22;5576;50.008;10.596;2023-06-22T09:52:35;28.80;99.90
11047;DHT22;5576;50.008;10.596;2023-06-22T09:55:01;28.90;99.90
11047;DHT22;5576;50.008;10.596;2023-06-22T09:57:29;29.00;99.90
11047;DHT22;5576;50.008;10.596;2023-06-22T09:59:55;29.10;99.90
11047;DHT22;5576;50.008;10.596;2023-06-22T10:02:21;29.30;99.90
11047;DHT22;5576;50.008;10.596;2023-06-22T10:04:48;29.30;99.90
11047;DHT22;5576;50.008;10.596;2023-06-22T10:07:13;29.40;99.90
11047;DHT22;5576;50.008;10.596;2023-06-22T10:09:39;29.50;99.90
11047;DHT22;5576;50.008;10.596;2023-06-22T10:12:05;29.60;99.90
11047;DHT22;5576;50.008;10.596;2023-06-22T10:14:31;29.70;99.90
11047;DHT22;5576;50.008;10.596;2023-06-22T10:16:57;29.80;99.90
11047;DHT22;5576;50.008;10.596;2023-06-22T10:19:23;29.90;99.90
11047;DHT22;5576;50.008;10.596;2023-06-22T10:21:48;29.80;99.90
11047;DHT22;5576;50.008;10.596;2023-06-22T10:24:14;30.00;99.90
11047;DHT22;5576;50.008;10.596;2023-06-22T10:26:40;31.10;99.90
11047;DHT22;5576;50.008;10.596;2023-06-22T10:29:05;29.20;99.90
11047;DHT22;5576;50.008;10.596;2023-06-22T10:31:31;30.10;99.90
11047;DHT22;5576;50.008;10.596;2023-06-22T10:33:57;30.30;99.90
11047;DHT22;5576;50.008;10.596;2023-06-22T10:36:23;30.40;99.90
11047;DHT22;5576;50.008;10.596;2023-06-22T10:38:49;31.10;99.90
11047;DHT22;5576;50.008;10.596;2023-06-22T10:41:15;30.60;99.90
11047;DHT22;5576;50.008;10.596;2023-06-22T10:43:41;30.80;99.90
11047;DHT22;5576;50.008;10.596;2023-06-22T10:46:07;30.80;99.90
11047;DHT22;5576;50.008;10.596;2023-06-22T10:48:33;30.80;99.90
11047;DHT22;5576;50.008;10.596;2023-06-22T10:50:59;30.80;99.90
11047;DHT22;5576;50.008;10.596;2023-06-22T10:53:25;30.90;99.90
11047;DHT22;5576;50.008;10.596;2023-06-22T10:55:50;30.80;99.90
11047;DHT22;5576;50.008;10.596;2023-06-22T10:58:18;29.10;99.90
11047;DHT22;5576;50.008;10.596;2023-06-22T11:00:45;30.10;99.90
11047;DHT22;5576;50.008;10.596;2023-06-22T11:03:10;30.80;99.90
11047;DHT22;5576;50.008;10.596;2023-06-22T11:05:37;30.80;99.90
11047;DHT22;5576;50.008;10.596;2023-06-22T11:08:03;30.90;99.90
11047;DHT22;5576;50.008;10.596;2023-06-22T11:10:29;31.00;99.90
11047;DHT22;5576;50.008;10.596;2023-06-22T11:12:54;31.00;99.90
11047;DHT22;5576;50.008;10.596;2023-06-22T11:15:21;30.90;99.90
11047;DHT22;5576;50.008;10.596;2023-06-22T11:17:47;30.90;99.90
11047;DHT22;5576;50.008;10.596;2023-06-22T11:20:13;31.00;99.90
11047;DHT22;5576;50.008;10.596;2023-06-22T11:22:39;30.80;99.90
11047;DHT22;5576;50.008;10.596;2023-06-22T11:25:06;30.90;99.90
11047;DHT22;5576;50.008;10.596;2023-06-22T11:27:32;30.90;99.90
11047;DHT22;5576;50.008;10.596;2023-06-22T11:29:57;30.90;99.90
11047;DHT22;5576;50.008;10.596;2023-06-22T11:32:24;31.00;99.90
11047;DHT22;5576;50.008;10.596;2023-06-22T11:34:50;30.10;99.90
11047;DHT22;5576;50.008;10.596;2023-06-22T11:37:15;32.30;99.90
11047;DHT22;5576;50.008;10.596;2023-06-22T11:39:42;32.40;99.90
11047;DHT22;5576;50.008;10.596;2023-06-22T11:42:08;31.60;99.90
11047;DHT22;5576;50.008;10.596;2023-06-22T11:44:34;31.70;99.90
11047;DHT22;5576;50.008;10.596;2023-06-22T11:47:00;31.70;99.90
11047;DHT22;5576;50.008;10.596;2023-06-22T11:49:27;32.30;99.90
11047;DHT22;5576;50.008;10.596;2023-06-22T11:51:53;34.30;99.90
11047;DHT22;5576;50.008;10.596;2023-06-22T11:54:19;31.30;99.90
11047;DHT22;5576;50.008;10.596;2023-06-22T11:56:44;31.40;99.90
11047;DHT22;5576;50.008;10.596;2023-06-22T11:59:10;31.70;99.90
11047;DHT22;5576;50.008;10.596;2023-06-22T12:01:36;31.90;99.90
11047;DHT22;5576;50.008;10.596;2023-06-22T12:04:02;32.00;99.90
11047;DHT22;5576;50.008;10.596;2023-06-22T12:06:31;32.00;99.90
11047;DHT22;5576;50.008;10.596;2023-06-22T12:08:57;32.00;99.90
11047;DHT22;5576;50.008;10.596;2023-06-22T12:11:23;32.20;99.90
11047;DHT22;5576;50.008;10.596;2023-06-22T12:13:49;32.40;99.90
11047;DHT22;5576;50.008;10.596;2023-06-22T12:16:15;32.40;99.90
11047;DHT22;5576;50.008;10.596;2023-06-22T12:18:40;32.30;99.90
11047;DHT22;5576;50.008;10.596;2023-06-22T12:21:06;32.20;99.90
11047;DHT22;5576;50.008;10.596;2023-06-22T12:23:32;31.80;99.90
11047;DHT22;5576;50.008;10.596;2023-06-22T12:25:58;31.70;99.90
11047;DHT22;5576;50.008;10.596;2023-06-22T12:28:25;31.70;99.90
11047;DHT22;5576;50.008;10.596;2023-06-22T12:30:51;31.70;99.90
11047;DHT22;5576;50.008;10.596;2023-06-22T12:33:16;31.80;99.90
11047;DHT22;5576;50.008;10.596;2023-06-22T12:35:43;31.90;99.90
11047;DHT22;5576;50.008;10.596;2023-06-22T12:38:10;31.70;99.90
11047;DHT22;5576;50.008;10.596;2023-06-22T12:40:36;31.60;99.90
11047;DHT22;5576;50.008;10.596;2023-06-22T12:43:02;31.50;99.90
11047;DHT22;5576;50.008;10.596;2023-06-22T12:45:28;31.70;99.90
11047;DHT22;5576;50.008;10.596;2023-06-22T12:47:57;31.90;99.90
11047;DHT22;5576;50.008;10.596;2023-06-22T12:50:23;33.10;99.90
11047;DHT22;5576;50.008;10.596;2023-06-22T12:52:49;35.30;99.90
11047;DHT22;5576;50.008;10.596;2023-06-22T12:55:14;32.50;99.90
11047;DHT22;5576;50.008;10.596;2023-06-22T12:57:40;32.70;99.90
11047;DHT22;5576;50.008;10.596;2023-06-22T13:00:06;32.90;99.90
11047;DHT22;5576;50.008;10.596;2023-06-22T13:02:34;33.00;99.90
11047;DHT22;5576;50.008;10.596;2023-06-22T13:05:01;33.10;99.90
11047;DHT22;5576;50.008;10.596;2023-06-22T13:07:27;33.80;99.90
11047;DHT22;5576;50.008;10.596;2023-06-22T13:09:53;33.00;99.90
11047;DHT22;5576;50.008;10.596;2023-06-22T13:12:19;32.90;99.90
11047;DHT22;5576;50.008;10.596;2023-06-22T13:14:45;32.70;99.90
11047;DHT22;5576;50.008;10.596;2023-06-22T13:17:12;33.20;99.90
11047;DHT22;5576;50.008;10.596;2023-06-22T13:19:39;32.80;99.90
11047;DHT22;5576;50.008;10.596;2023-06-22T13:22:09;32.40;99.90
11047;DHT22;5576;50.008;10.596;2023-06-22T13:24:50;32.20;99.90
11047;DHT22;5576;50.008;10.596;2023-06-22T13:27:16;32.10;99.90
11047;DHT22;5576;50.008;10.596;2023-06-22T13:29:42;33.00;99.90
11047;DHT22;5576;50.008;10.596;2023-06-22T13:32:08;31.90;99.90
11047;DHT22;5576;50.008;10.596;2023-06-22T13:34:33;31.80;99.90
11047;DHT22;5576;50.008;10.596;2023-06-22T13:36:59;31.90;99.90
11047;DHT22;5576;50.008;10.596;2023-06-22T13:39:25;31.90;99.90
11047;DHT22;5576;50.008;10.596;2023-06-22T13:41:50;32.10;99.90
11047;DHT22;5576;50.008;10.596;2023-06-22T13:44:16;33.40;99.90
11047;DHT22;5576;50.008;10.596;2023-06-22T13:46:42;33.40;99.90
11047;DHT22;5576;50.008;10.596;2023-06-22T13:49:08;31.40;99.90
11047;DHT22;5576;50.008;10.596;2023-06-22T13:51:33;32.50;99.90
11047;DHT22;5576;50.008;10.596;2023-06-22T13:53:59;32.90;99.90
11047;DHT22;5576;50.008;10.596;2023-06-22T13:56:25;33.00;99.90
11047;DHT22;5576;50.008;10.596;2023-06-22T13:58:50;33.00;99.90
11047;DHT22;5576;50.008;10.596;2023-06-22T14:01:16;32.90;99.90
11047;DHT22;5576;50.008;10.596;2023-06-22T14:03:42;32.50;99.90
11047;DHT22;5576;50.008;10.596;2023-06-22T14:06:10;32.50;99.90
11047;DHT22;5576;50.008;10.596;2023-06-22T14:08:37;32.30;99.90
11047;DHT22;5576;50.008;10.596;2023-06-22T14:11:03;32.30;99.90
11047;DHT22;5576;50.008;10.596;2023-06-22T14:13:28;32.10;99.90
11047;DHT22;5576;50.008;10.596;2023-06-22T14:15:54;32.00;99.90
11047;DHT22;5576;50.008;10.596;2023-06-22T14:18:20;32.00;99.90
11047;DHT22;5576;50.008;10.596;2023-06-22T14:20:48;31.90;99.90
11047;DHT22;5576;50.008;10.596;2023-06-22T14:23:14;32.20;99.90
11047;DHT22;5576;50.008;10.596;2023-06-22T14:25:40;32.10;99.90
11047;DHT22;5576;50.008;10.596;2023-06-22T14:28:06;32.20;99.90
11047;DHT22;5576;50.008;10.596;2023-06-22T14:30:32;33.50;99.90
11047;DHT22;5576;50.008;10.596;2023-06-22T14:32:57;32.60;99.90
11047;DHT22;5576;50.008;10.596;2023-06-22T14:35:23;32.70;99.90
11047;DHT22;5576;50.008;10.596;2023-06-22T14:37:50;32.70;99.90
11047;DHT22;5576;50.008;10.596;2023-06-22T14:40:15;34.10;99.90
11047;DHT22;5576;50.008;10.596;2023-06-22T14:42:41;32.80;99.90
11047;DHT22;5576;50.008;10.596;2023-06-22T14:45:07;34.20;99.90
11047;DHT22;5576;50.008;10.596;2023-06-22T14:47:33;33.00;99.90
11047;DHT22;5576;50.008;10.596;2023-06-22T14:49:59;30.20;99.90
11047;DHT22;5576;50.008;10.596;2023-06-22T14:52:26;33.10;99.90
11047;DHT22;5576;50.008;10.596;2023-06-22T14:54:53;33.30;99.90
11047;DHT22;5576;50.008;10.596;2023-06-22T14:57:19;33.30;99.90
11047;DHT22;5576;50.008;10.596;2023-06-22T14:59:46;33.30;99.90
11047;DHT22;5576;50.008;10.596;2023-06-22T15:02:14;33.30;99.90
11047;DHT22;5576;50.008;10.596;2023-06-22T15:04:40;33.30;99.90
11047;DHT22;5576;50.008;10.596;2023-06-22T15:07:06;33.30;99.90
11047;DHT22;5576;50.008;10.596;2023-06-22T15:09:32;33.30;99.90
11047;DHT22;5576;50.008;10.596;2023-06-22T15:11:59;33.10;99.90
11047;DHT22;5576;50.008;10.596;2023-06-22T15:14:27;32.90;99.90
11047;DHT22;5576;50.008;10.596;2023-06-22T15:16:53;32.80;99.90
11047;DHT22;5576;50.008;10.596;2023-06-22T15:19:19;31.10;99.90
11047;DHT22;5576;50.008;10.596;2023-06-22T15:21:44;32.60;99.90
11047;DHT22;5576;50.008;10.596;2023-06-22T15:24:11;28.70;99.90
11047;DHT22;5576;50.008;10.596;2023-06-22T15:26:36;31.00;99.90
11047;DHT22;5576;50.008;10.596;2023-06-22T15:29:03;32.00;99.90
11047;DHT22;5576;50.008;10.596;2023-06-22T15:31:29;31.90;99.90
11047;DHT22;5576;50.008;10.596;2023-06-22T15:33:54;32.00;99.90
11047;DHT22;5576;50.008;10.596;2023-06-22T15:36:20;32.00;99.90